Time;durP1;ratioP1;P1;durP2;ratioP2;P2;SDS_P1;SDS_P2;PMS_P1;PMS_P2;Temp;Humidity;BMP_temperature;BMP_pressure;BME280_temperature;BME280_humidity;BME280_pressure;Samples;Min_cycle;Max_cycle;Signal;HPM_P1;HPM_P2
2022/05/25 00:02:02;;;;;;;5.10;1.70;;;;;;;;;;5056163;28;20426;-57
2022/05/25 00:04:28;;;;;;;1.60;1.50;;;;;;;;;;5070907;28;20425;-56
2022/05/25 00:06:54;;;;;;;1.60;1.50;;;;;;;;;;5072352;28;20281;-56
2022/05/25 00:09:21;;;;;;;4.60;1.50;;;;;;;;;;5072142;28;20444;-57
2022/05/25 00:11:47;;;;;;;1.77;1.67;;;;;;;;;;5058174;28;20408;-56
2022/05/25 00:14:13;;;;;;;5.60;1.47;;;;;;;;;;5073673;28;20988;-57
2022/05/25 00:16:39;;;;;;;3.53;1.80;;;;;;;;;;5058588;28;20930;-57
2022/05/25 00:21:50;;;;;;;3.33;1.70;;;;;;;;;;5055755;28;20424;-57
2022/05/25 00:24:16;;;;;;;1.60;1.50;;;;;;;;;;5061106;28;20430;-57
2022/05/25 00:26:42;;;;;;;3.30;1.50;;;;;;;;;;5073511;28;20959;-56
2022/05/25 00:29:08;;;;;;;4.00;1.87;;;;;;;;;;5066900;28;20417;-57
2022/05/25 00:31:35;;;;;;;4.47;2.00;;;;;;;;;;5052812;28;20402;-56
2022/05/25 00:34:01;;;;;;;1.93;1.83;;;;;;;;;;5062280;28;20580;-56
2022/05/25 00:36:27;;;;;;;3.50;1.80;;;;;;;;;;5073046;28;20515;-56
2022/05/25 00:38:53;;;;;;;2.40;2.20;;;;;;;;;;5065359;28;20420;-57
2022/05/25 00:41:23;;;;;;;1.90;1.80;;;;;;;;;;5052659;28;20424;-57
2022/05/25 00:43:49;;;;;;;2.00;1.80;;;;;;;;;;5059544;28;20426;-56
2022/05/25 00:46:16;;;;;;;2.97;1.90;;;;;;;;;;5053069;28;20465;-57
2022/05/25 00:48:48;;;;;;;4.90;2.07;;;;;;;;;;5063288;28;20418;-57
2022/05/25 00:51:21;;;;;;;2.10;1.90;;;;;;;;;;5058436;28;20778;-57
2022/05/25 00:54:13;;;;;;;3.07;2.10;;;;;;;;;;5070780;28;20434;-57
2022/05/25 00:56:41;;;;;;;5.70;2.33;;;;;;;;;;5069760;28;20434;-57
2022/05/25 00:59:13;;;;;;;2.30;2.20;;;;;;;;;;5064568;28;20414;-57
2022/05/25 01:01:39;;;;;;;2.83;2.60;;;;;;;;;;5051501;28;20925;-56
2022/05/25 01:04:05;;;;;;;2.70;2.17;;;;;;;;;;5053483;28;20436;-57
2022/05/25 01:06:50;;;;;;;2.10;1.93;;;;;;;;;;5053150;28;20953;-55
2022/05/25 01:09:16;;;;;;;4.10;2.60;;;;;;;;;;5054815;28;20415;-56
2022/05/25 01:11:42;;;;;;;2.53;2.20;;;;;;;;;;5071747;28;20766;-56
2022/05/25 01:14:27;;;;;;;3.73;2.23;;;;;;;;;;5071832;28;20443;-56
2022/05/25 01:17:15;;;;;;;2.60;2.40;;;;;;;;;;5072596;28;20816;-56
2022/05/25 01:19:44;;;;;;;6.20;3.20;;;;;;;;;;5072209;28;20429;-57
2022/05/25 01:22:22;;;;;;;3.43;2.40;;;;;;;;;;5069715;28;20430;-56
2022/05/25 01:25:05;;;;;;;2.90;2.60;;;;;;;;;;5063449;28;20825;-57
2022/05/25 01:27:38;;;;;;;3.00;2.70;;;;;;;;;;5068026;28;20475;-57
2022/05/25 01:30:10;;;;;;;2.77;2.57;;;;;;;;;;5052281;28;20448;-56
2022/05/25 01:32:39;;;;;;;4.00;2.60;;;;;;;;;;5070477;28;20451;-56
2022/05/25 01:35:24;;;;;;;5.90;2.87;;;;;;;;;;5070493;28;20893;-56
2022/05/25 01:37:49;;;;;;;3.00;2.70;;;;;;;;;;5067875;28;20417;-56
2022/05/25 01:40:15;;;;;;;4.53;2.97;;;;;;;;;;5059405;28;20417;-55
2022/05/25 01:42:44;;;;;;;4.03;3.53;;;;;;;;;;5060523;28;20409;-57
2022/05/25 01:45:10;;;;;;;2.70;2.50;;;;;;;;;;5069552;28;20463;-56
2022/05/25 01:47:39;;;;;;;3.53;3.00;;;;;;;;;;5054153;28;20410;-56
2022/05/25 01:50:10;;;;;;;5.77;3.27;;;;;;;;;;5052350;28;20475;-56
2022/05/25 01:52:39;;;;;;;5.37;2.80;;;;;;;;;;5052294;28;20420;-57
2022/05/25 01:55:07;;;;;;;3.03;2.73;;;;;;;;;;5056295;28;20498;-56
2022/05/25 01:57:36;;;;;;;3.63;3.00;;;;;;;;;;5072117;28;20429;-56
2022/05/25 02:00:02;;;;;;;3.40;3.10;;;;;;;;;;5055088;28;20411;-55
2022/05/25 02:05:16;;;;;;;4.37;2.63;;;;;;;;;;5069097;28;20809;-57
2022/05/25 02:07:58;;;;;;;3.80;3.00;;;;;;;;;;5060512;28;20420;-56
2022/05/25 02:10:42;;;;;;;3.17;2.90;;;;;;;;;;5067768;28;20409;-57
2022/05/25 02:13:08;;;;;;;5.00;2.97;;;;;;;;;;5051648;28;20409;-56
2022/05/25 02:15:38;;;;;;;4.03;3.10;;;;;;;;;;5059093;28;21010;-56
2022/05/25 02:18:23;;;;;;;10.83;3.77;;;;;;;;;;5051578;28;20492;-56
2022/05/25 02:21:08;;;;;;;3.73;3.07;;;;;;;;;;5050913;28;20456;-56
2022/05/25 02:23:39;;;;;;;2.93;2.63;;;;;;;;;;5060142;28;20420;-56
2022/05/25 02:26:10;;;;;;;4.20;3.80;;;;;;;;;;5053791;28;20513;-57
2022/05/25 02:28:39;;;;;;;3.73;3.33;;;;;;;;;;5051795;28;20425;-57
2022/05/25 02:31:06;;;;;;;3.97;3.30;;;;;;;;;;5071100;28;20404;-56
2022/05/25 02:33:35;;;;;;;3.33;3.10;;;;;;;;;;5062126;28;20420;-57
2022/05/25 02:36:01;;;;;;;4.03;3.50;;;;;;;;;;5051438;28;20520;-56
2022/05/25 02:38:28;;;;;;;3.53;3.33;;;;;;;;;;5070648;28;20452;-55
2022/05/25 02:41:14;;;;;;;5.17;3.53;;;;;;;;;;5064888;28;20504;-55
2022/05/25 02:43:40;;;;;;;6.90;3.80;;;;;;;;;;5051210;28;20967;-55
2022/05/25 02:46:07;;;;;;;6.83;4.07;;;;;;;;;;5052710;28;20464;-55
2022/05/25 02:48:34;;;;;;;4.60;3.30;;;;;;;;;;5051573;28;20414;-56
2022/05/25 02:51:00;;;;;;;8.20;3.50;;;;;;;;;;5050609;28;20471;-57
2022/05/25 02:53:26;;;;;;;5.23;4.33;;;;;;;;;;5052537;28;20913;-56
2022/05/25 02:55:52;;;;;;;3.77;3.47;;;;;;;;;;5065891;28;20445;-56
2022/05/25 02:58:18;;;;;;;3.77;3.20;;;;;;;;;;5067742;28;20470;-56
2022/05/25 03:00:44;;;;;;;5.47;4.20;;;;;;;;;;5070743;28;20424;-54
2022/05/25 03:03:12;;;;;;;5.23;4.13;;;;;;;;;;5055545;28;20445;-57
2022/05/25 03:05:38;;;;;;;5.80;3.50;;;;;;;;;;5051268;28;20464;-55
2022/05/25 03:08:05;;;;;;;4.87;3.60;;;;;;;;;;5051647;28;20913;-56
2022/05/25 03:10:31;;;;;;;4.20;3.80;;;;;;;;;;5052373;28;20413;-56
2022/05/25 03:12:57;;;;;;;5.47;4.43;;;;;;;;;;5058962;28;20415;-56
2022/05/25 03:15:23;;;;;;;4.37;3.80;;;;;;;;;;5058944;28;20465;-56
2022/05/25 03:17:49;;;;;;;3.73;3.43;;;;;;;;;;5050910;28;20409;-56
2022/05/25 03:20:15;;;;;;;6.00;3.90;;;;;;;;;;5066657;28;20416;-56
2022/05/25 03:22:44;;;;;;;4.40;4.00;;;;;;;;;;5070618;28;20400;-57
2022/05/25 03:25:10;;;;;;;6.93;4.77;;;;;;;;;;5059252;28;20516;-57
2022/05/25 03:27:36;;;;;;;4.87;3.73;;;;;;;;;;5067207;28;20420;-57
2022/05/25 03:30:04;;;;;;;7.13;3.90;;;;;;;;;;5050998;28;20418;-55
2022/05/25 03:32:30;;;;;;;4.47;4.07;;;;;;;;;;5053374;28;20889;-56
2022/05/25 03:34:57;;;;;;;7.67;4.77;;;;;;;;;;5072146;28;20428;-56
2022/05/25 03:37:23;;;;;;;5.60;4.40;;;;;;;;;;5074392;28;20407;-56
2022/05/25 03:39:49;;;;;;;4.70;3.83;;;;;;;;;;5061992;28;20417;-57
2022/05/25 03:42:16;;;;;;;6.17;3.93;;;;;;;;;;5073734;28;20450;-56
2022/05/25 03:44:42;;;;;;;5.67;4.30;;;;;;;;;;5055244;28;20429;-55
2022/05/25 03:47:08;;;;;;;6.43;4.30;;;;;;;;;;5059822;28;20460;-56
2022/05/25 03:49:34;;;;;;;5.17;4.13;;;;;;;;;;5073919;28;20492;-56
2022/05/25 03:52:00;;;;;;;4.67;4.17;;;;;;;;;;5069157;28;20410;-57
2022/05/25 03:54:26;;;;;;;8.07;4.33;;;;;;;;;;5064356;28;20449;-56
2022/05/25 03:56:53;;;;;;;4.67;4.13;;;;;;;;;;5056649;28;20791;-56
2022/05/25 03:59:19;;;;;;;6.00;4.40;;;;;;;;;;5059346;28;20427;-56
2022/05/25 04:01:45;;;;;;;5.40;4.47;;;;;;;;;;5059866;28;20413;-56
2022/05/25 04:04:11;;;;;;;7.43;4.50;;;;;;;;;;5065797;28;20416;-56
2022/05/25 04:06:37;;;;;;;5.20;4.67;;;;;;;;;;5062457;28;20486;-55
2022/05/25 04:09:04;;;;;;;6.63;4.60;;;;;;;;;;5073924;28;20397;-57
2022/05/25 04:11:30;;;;;;;4.80;3.93;;;;;;;;;;5062223;28;20421;-56
2022/05/25 04:13:56;;;;;;;4.53;4.13;;;;;;;;;;5072096;28;20837;-56
2022/05/25 04:16:22;;;;;;;5.70;4.57;;;;;;;;;;5070918;28;20436;-56
2022/05/25 04:18:48;;;;;;;6.67;4.57;;;;;;;;;;5059302;28;20428;-57
2022/05/25 04:21:14;;;;;;;4.70;3.90;;;;;;;;;;5060884;28;20456;-56
2022/05/25 04:23:40;;;;;;;6.00;3.73;;;;;;;;;;5068667;28;20424;-56
2022/05/25 04:26:06;;;;;;;4.60;4.20;;;;;;;;;;5062063;28;20465;-56
2022/05/25 04:28:32;;;;;;;5.30;4.83;;;;;;;;;;5072322;28;20424;-56
2022/05/25 04:30:58;;;;;;;4.87;4.37;;;;;;;;;;5058982;28;20599;-56
2022/05/25 04:33:27;;;;;;;9.67;5.00;;;;;;;;;;5060570;28;20410;-55
2022/05/25 04:35:53;;;;;;;4.90;4.40;;;;;;;;;;5053791;28;20570;-56
2022/05/25 04:38:19;;;;;;;6.07;5.10;;;;;;;;;;5053267;28;20423;-56
2022/05/25 04:40:45;;;;;;;7.50;5.93;;;;;;;;;;5069428;28;20466;-56
2022/05/25 04:43:15;;;;;;;8.63;4.60;;;;;;;;;;5072789;28;20404;-56
2022/05/25 04:45:41;;;;;;;6.30;4.47;;;;;;;;;;5057937;28;20489;-55
2022/05/25 04:48:07;;;;;;;4.97;4.40;;;;;;;;;;5062836;28;20416;-56
2022/05/25 04:50:35;;;;;;;11.50;5.27;;;;;;;;;;5072887;28;20796;-56
2022/05/25 04:53:04;;;;;;;7.00;4.70;;;;;;;;;;5053643;28;20483;-52
2022/05/25 04:58:18;;;;;;;6.07;4.83;;;;;;;;;;5072703;28;20395;-51
2022/05/25 05:00:44;;;;;;;5.33;4.83;;;;;;;;;;5066698;28;20413;-55
2022/05/25 05:03:10;;;;;;;4.87;3.97;;;;;;;;;;5063805;28;20955;-52
2022/05/25 05:05:36;;;;;;;6.73;5.07;;;;;;;;;;5072324;28;20456;-53
2022/05/25 05:08:02;;;;;;;6.87;4.40;;;;;;;;;;5058481;28;20420;-53
2022/05/25 05:10:28;;;;;;;8.50;5.10;;;;;;;;;;5056755;28;20905;-51
2022/05/25 05:12:54;;;;;;;5.67;4.87;;;;;;;;;;5072569;28;20402;-52
2022/05/25 05:15:21;;;;;;;9.47;5.90;;;;;;;;;;5070907;28;20988;-52
2022/05/25 05:17:47;;;;;;;5.63;5.10;;;;;;;;;;5061529;28;20497;-52
2022/05/25 05:20:13;;;;;;;5.47;4.97;;;;;;;;;;5061193;28;20574;-55
2022/05/25 05:22:39;;;;;;;6.47;4.57;;;;;;;;;;5059204;28;20429;-51
2022/05/25 05:25:06;;;;;;;9.73;5.27;;;;;;;;;;5055371;28;20442;-53
2022/05/25 05:27:32;;;;;;;6.20;5.60;;;;;;;;;;5072289;28;20998;-51
2022/05/25 05:30:02;;;;;;;5.50;4.43;;;;;;;;;;5055793;28;20414;-54
2022/05/25 05:32:30;;;;;;;5.57;4.70;;;;;;;;;;5053095;28;20435;-53
2022/05/25 05:34:56;;;;;;;8.47;5.67;;;;;;;;;;5070000;28;20456;-55
2022/05/25 05:37:25;;;;;;;6.60;4.53;;;;;;;;;;5052510;28;20985;-54
2022/05/25 05:39:54;;;;;;;6.90;5.30;;;;;;;;;;5052071;28;20398;-52
2022/05/25 05:42:20;;;;;;;5.10;4.70;;;;;;;;;;5070997;28;20910;-52
2022/05/25 05:44:49;;;;;;;7.03;4.87;;;;;;;;;;5062291;28;20437;-52
2022/05/25 05:47:17;;;;;;;5.17;4.63;;;;;;;;;;5053055;28;20468;-53
2022/05/25 05:49:43;;;;;;;9.53;5.50;;;;;;;;;;5060086;28;20474;-54
2022/05/25 05:52:09;;;;;;;5.87;4.27;;;;;;;;;;5071021;28;20417;-52
2022/05/25 05:54:35;;;;;;;7.47;4.83;;;;;;;;;;5069182;28;20866;-52
2022/05/25 05:57:01;;;;;;;5.07;4.10;;;;;;;;;;5066774;28;20471;-54
2022/05/25 05:59:27;;;;;;;9.83;4.90;;;;;;;;;;5060312;28;20417;-52
2022/05/25 06:01:53;;;;;;;4.80;4.30;;;;;;;;;;5070898;28;20947;-52
2022/05/25 06:04:20;;;;;;;5.40;3.73;;;;;;;;;;5054732;28;20481;-52
2022/05/25 06:06:45;;;;;;;8.17;3.60;;;;;;;;;;5058883;28;20460;-52
2022/05/25 06:09:11;;;;;;;8.53;3.17;;;;;;;;;;5051684;28;20398;-52
2022/05/25 06:11:40;;;;;;;6.93;3.50;;;;;;;;;;5063021;28;20417;-52
2022/05/25 06:14:05;;;;;;;3.40;3.00;;;;;;;;;;5068276;28;20417;-53
2022/05/25 06:19:33;;;;;;;5.43;2.60;;;;;;;;;;5051693;28;20404;-52
2022/05/25 06:22:04;;;;;;;2.40;2.20;;;;;;;;;;5052127;28;20425;-54
2022/05/25 06:24:33;;;;;;;3.10;2.10;;;;;;;;;;5052608;28;20482;-52
2022/05/25 06:27:00;;;;;;;3.87;2.77;;;;;;;;;;5067820;28;20514;-53
2022/05/25 06:29:26;;;;;;;5.73;3.50;;;;;;;;;;5051542;28;20458;-54
2022/05/25 06:31:52;;;;;;;3.23;2.93;;;;;;;;;;5051927;28;20504;-55
2022/05/25 06:34:18;;;;;;;3.50;3.20;;;;;;;;;;5056829;28;20434;-52
2022/05/25 06:36:47;;;;;;;4.63;2.90;;;;;;;;;;5062549;28;20418;-52
2022/05/25 06:39:13;;;;;;;4.10;2.40;;;;;;;;;;5060563;28;20427;-54
2022/05/25 06:41:38;;;;;;;4.30;2.57;;;;;;;;;;5051740;28;20439;-52
2022/05/25 06:44:05;;;;;;;5.20;2.50;;;;;;;;;;5050547;28;20503;-54
2022/05/25 06:46:31;;;;;;;3.50;2.47;;;;;;;;;;5059888;28;20457;-52
2022/05/25 06:49:00;;;;;;;6.40;2.50;;;;;;;;;;5071314;28;20404;-51
2022/05/25 06:51:30;;;;;;;4.03;2.50;;;;;;;;;;5068773;28;20445;-52
2022/05/25 06:53:57;;;;;;;4.50;2.40;;;;;;;;;;5052224;28;20524;-52
2022/05/25 06:56:24;;;;;;;4.17;2.73;;;;;;;;;;5057642;28;20425;-52
2022/05/25 06:58:52;;;;;;;6.37;2.23;;;;;;;;;;5070962;28;20839;-53
2022/05/25 07:01:18;;;;;;;2.43;1.30;;;;;;;;;;5069341;28;20397;-53
2022/05/25 07:03:44;;;;;;;3.67;1.90;;;;;;;;;;5067379;28;20839;-52
2022/05/25 07:06:11;;;;;;;2.00;1.80;;;;;;;;;;5062709;28;20555;-52
2022/05/25 07:08:37;;;;;;;5.03;1.80;;;;;;;;;;5063119;28;20469;-52
2022/05/25 07:11:03;;;;;;;3.07;1.90;;;;;;;;;;5061810;28;20412;-52
2022/05/25 07:13:30;;;;;;;4.87;2.10;;;;;;;;;;5074223;28;20432;-54
2022/05/25 07:16:07;;;;;;;2.40;1.50;;;;;;;;;;5068631;28;20443;-52
2022/05/25 07:18:33;;;;;;;6.03;1.90;;;;;;;;;;5054849;28;20414;-52
2022/05/25 07:21:00;;;;;;;3.10;1.60;;;;;;;;;;5073072;28;20422;-52
2022/05/25 07:23:26;;;;;;;1.90;1.70;;;;;;;;;;5074837;28;20383;-53
2022/05/25 07:25:52;;;;;;;1.40;1.30;;;;;;;;;;5057741;28;20473;-54
2022/05/25 07:28:18;;;;;;;1.80;1.70;;;;;;;;;;5070552;28;20443;-54
2022/05/25 07:30:44;;;;;;;2.80;1.80;;;;;;;;;;5070637;28;20398;-58
2022/05/25 07:33:10;;;;;;;4.77;1.83;;;;;;;;;;5061980;28;20422;-52
2022/05/25 07:35:37;;;;;;;5.70;1.77;;;;;;;;;;5074340;28;20448;-55
2022/05/25 07:38:03;;;;;;;1.43;1.33;;;;;;;;;;5072919;28;20389;-54
2022/05/25 07:40:33;;;;;;;3.63;1.97;;;;;;;;;;5065439;28;20427;-52
2022/05/25 07:43:02;;;;;;;4.20;1.80;;;;;;;;;;5073502;28;20424;-56
2022/05/25 07:45:28;;;;;;;3.33;1.70;;;;;;;;;;5058125;28;20477;-53
2022/05/25 07:47:54;;;;;;;1.53;1.43;;;;;;;;;;5055459;28;20419;-53
2022/05/25 07:50:21;;;;;;;2.60;1.47;;;;;;;;;;5054225;28;20407;-54
2022/05/25 07:52:48;;;;;;;3.77;1.60;;;;;;;;;;5056944;28;20396;-52
2022/05/25 07:55:14;;;;;;;1.67;1.57;;;;;;;;;;5054084;28;20404;-53
2022/05/25 07:57:40;;;;;;;3.33;1.50;;;;;;;;;;5069735;28;20396;-55
2022/05/25 08:00:07;;;;;;;6.50;1.43;;;;;;;;;;5067860;28;20418;-53
2022/05/25 08:08:05;;;;;;;2.30;1.73;;;;;;;;;;5074305;28;20396;-55
2022/05/25 08:10:33;;;;;;;1.33;1.23;;;;;;;;;;5056600;28;20419;-54
2022/05/25 08:12:59;;;;;;;2.07;0.90;;;;;;;;;;5064871;28;20471;-53
2022/05/25 08:15:26;;;;;;;2.37;1.30;;;;;;;;;;5053715;28;20425;-55
2022/05/25 08:17:53;;;;;;;1.43;1.17;;;;;;;;;;5062121;28;20501;-53
2022/05/25 08:20:19;;;;;;;1.90;1.23;;;;;;;;;;5073490;28;20396;-53
2022/05/25 08:22:45;;;;;;;3.63;1.30;;;;;;;;;;5055759;28;20498;-53
2022/05/25 08:25:12;;;;;;;1.53;1.17;;;;;;;;;;5053580;28;20678;-53
2022/05/25 08:27:39;;;;;;;2.70;1.30;;;;;;;;;;5066026;28;20460;-53
2022/05/25 08:30:08;;;;;;;2.20;1.50;;;;;;;;;;5071774;28;20418;-53
2022/05/25 08:32:34;;;;;;;1.20;1.10;;;;;;;;;;5066816;28;20405;-53
2022/05/25 08:35:00;;;;;;;2.93;1.10;;;;;;;;;;5063652;28;20570;-53
2022/05/25 08:37:26;;;;;;;2.10;1.30;;;;;;;;;;5072928;28;20462;-53
2022/05/25 08:39:52;;;;;;;1.37;1.27;;;;;;;;;;5054636;28;20909;-54
2022/05/25 08:42:20;;;;;;;4.63;1.40;;;;;;;;;;5051847;28;20431;-55
2022/05/25 08:44:47;;;;;;;3.00;1.43;;;;;;;;;;5060687;28;20449;-53
2022/05/25 08:47:13;;;;;;;3.10;1.20;;;;;;;;;;5072810;28;20460;-53
2022/05/25 08:49:41;;;;;;;1.03;0.93;;;;;;;;;;5072883;28;20413;-53
2022/05/25 08:52:18;;;;;;;2.07;1.10;;;;;;;;;;5053130;28;20405;-53
2022/05/25 08:54:44;;;;;;;1.37;1.07;;;;;;;;;;5052746;28;20581;-54
2022/05/25 08:57:15;;;;;;;1.77;1.13;;;;;;;;;;5053369;28;20889;-55
2022/05/25 09:00:12;;;;;;;1.93;1.10;;;;;;;;;;5052729;28;20408;-55
2022/05/25 09:02:41;;;;;;;2.93;1.37;;;;;;;;;;5035937;28;20518;-54
2022/05/25 09:05:10;;;;;;;1.07;0.97;;;;;;;;;;5059001;28;20451;-54
2022/05/25 09:07:42;;;;;;;3.43;1.20;;;;;;;;;;5060984;28;20559;-53
2022/05/25 09:10:11;;;;;;;1.10;1.00;;;;;;;;;;5052509;28;20452;-53
2022/05/25 09:12:55;;;;;;;1.97;1.10;;;;;;;;;;5052886;28;20451;-57
2022/05/25 09:15:23;;;;;;;1.87;0.90;;;;;;;;;;5052113;28;20842;-56
2022/05/25 09:17:52;;;;;;;2.60;0.97;;;;;;;;;;5052354;28;20409;-53
2022/05/25 09:20:21;;;;;;;1.00;0.90;;;;;;;;;;5052258;28;20427;-54
2022/05/25 09:22:47;;;;;;;2.03;0.80;;;;;;;;;;5051403;28;20406;-54
2022/05/25 09:25:15;;;;;;;1.10;0.93;;;;;;;;;;5051984;28;20448;-54
2022/05/25 09:27:46;;;;;;;1.10;0.90;;;;;;;;;;5062673;28;20459;-56
2022/05/25 09:30:13;;;;;;;0.93;0.90;;;;;;;;;;5072150;28;20778;-58
2022/05/25 09:32:50;;;;;;;2.53;0.90;;;;;;;;;;5071395;28;20805;-58
2022/05/25 09:35:37;;;;;;;1.87;1.03;;;;;;;;;;5071205;28;20424;-59
2022/05/25 09:38:03;;;;;;;1.00;0.90;;;;;;;;;;5071783;28;20811;-57
2022/05/25 09:40:34;;;;;;;1.80;0.90;;;;;;;;;;5072125;28;20400;-56
2022/05/25 09:43:02;;;;;;;1.20;0.90;;;;;;;;;;5069798;28;20979;-56
2022/05/25 09:45:41;;;;;;;2.90;0.90;;;;;;;;;;5055509;28;20439;-56
2022/05/25 09:48:15;;;;;;;1.37;0.80;;;;;;;;;;5058059;28;20447;-56
2022/05/25 09:50:49;;;;;;;1.20;0.90;;;;;;;;;;5053307;28;20397;-56
2022/05/25 09:53:17;;;;;;;2.23;0.80;;;;;;;;;;5071676;28;20419;-57
2022/05/25 09:55:45;;;;;;;1.00;0.90;;;;;;;;;;5071873;28;20530;-57
2022/05/25 09:58:22;;;;;;;0.90;0.80;;;;;;;;;;5071580;28;20527;-57
2022/05/25 10:00:55;;;;;;;9.73;1.10;;;;;;;;;;5071555;28;20408;-56
2022/05/25 10:03:27;;;;;;;1.10;0.90;;;;;;;;;;5064553;28;20467;-57
2022/05/25 10:05:58;;;;;;;1.00;0.90;;;;;;;;;;5051565;28;20854;-57
2022/05/25 10:08:27;;;;;;;1.83;0.87;;;;;;;;;;5051585;28;20409;-58
2022/05/25 10:11:00;;;;;;;0.90;0.70;;;;;;;;;;5051010;28;20876;-58
2022/05/25 10:13:29;;;;;;;0.87;0.70;;;;;;;;;;5051564;28;20401;-58
2022/05/25 10:15:56;;;;;;;1.47;0.80;;;;;;;;;;5051612;28;20960;-57
2022/05/25 10:18:36;;;;;;;1.53;1.00;;;;;;;;;;5052541;28;20397;-55
2022/05/25 10:21:03;;;;;;;2.73;0.90;;;;;;;;;;5080448;28;20965;-55
2022/05/25 10:23:29;;;;;;;1.13;0.80;;;;;;;;;;5071397;28;20436;-56
2022/05/25 10:25:57;;;;;;;0.90;0.80;;;;;;;;;;5071548;28;20967;-56
2022/05/25 10:28:23;;;;;;;2.47;1.00;;;;;;;;;;5071763;28;20403;-58
2022/05/25 10:37:06;;;;;;;0.90;0.80;;;;;;;;;;5058028;28;20425;-58
2022/05/25 10:39:39;;;;;;;1.00;0.90;;;;;;;;;;5050898;28;20427;-57
2022/05/25 10:42:23;;;;;;;1.30;0.80;;;;;;;;;;5063034;28;20424;-58
2022/05/25 10:45:08;;;;;;;1.97;0.80;;;;;;;;;;5068545;28;20503;-57
2022/05/25 10:47:52;;;;;;;1.20;0.80;;;;;;;;;;5064646;28;20453;-55
2022/05/25 10:50:32;;;;;;;0.93;0.83;;;;;;;;;;5069563;28;20411;-55
2022/05/25 10:53:01;;;;;;;2.83;0.80;;;;;;;;;;5065508;28;20494;-55
2022/05/25 10:55:31;;;;;;;1.20;0.90;;;;;;;;;;5069742;28;20440;-56
2022/05/25 10:58:06;;;;;;;1.77;1.23;;;;;;;;;;5071526;28;20415;-55
2022/05/25 11:00:35;;;;;;;1.00;0.70;;;;;;;;;;5067104;28;20962;-57
2022/05/25 11:03:01;;;;;;;1.83;1.10;;;;;;;;;;5065699;28;20407;-58
2022/05/25 11:05:27;;;;;;;2.23;1.30;;;;;;;;;;5066413;28;20796;-58
2022/05/25 11:07:55;;;;;;;0.77;0.67;;;;;;;;;;5065333;28;20661;-58
2022/05/25 11:10:40;;;;;;;1.20;0.80;;;;;;;;;;5054532;28;20417;-57
2022/05/25 11:13:15;;;;;;;1.40;0.83;;;;;;;;;;5053028;28;20417;-57
2022/05/25 11:15:48;;;;;;;5.90;1.23;;;;;;;;;;5064370;28;20443;-55
2022/05/25 11:18:14;;;;;;;1.40;0.87;;;;;;;;;;5054195;28;20417;-57
2022/05/25 11:20:59;;;;;;;1.20;0.90;;;;;;;;;;5055862;28;20413;-59
2022/05/25 11:23:51;;;;;;;1.30;0.80;;;;;;;;;;5054944;28;20412;-59
2022/05/25 11:26:41;;;;;;;4.20;1.00;;;;;;;;;;5065359;28;21020;-58
2022/05/25 11:29:20;;;;;;;1.17;0.90;;;;;;;;;;5075071;28;20408;-58
2022/05/25 11:32:00;;;;;;;0.93;0.80;;;;;;;;;;5072248;28;20434;-58
2022/05/25 11:34:45;;;;;;;1.37;0.90;;;;;;;;;;5063547;28;20519;-58
2022/05/25 11:37:28;;;;;;;2.17;0.90;;;;;;;;;;5054715;28;20413;-57
2022/05/25 11:40:03;;;;;;;2.23;1.00;;;;;;;;;;5053697;28;20790;-56
2022/05/25 11:42:29;;;;;;;1.73;0.80;;;;;;;;;;5055544;28;20465;-59
2022/05/25 11:44:57;;;;;;;2.80;1.07;;;;;;;;;;5060470;28;20478;-53
2022/05/25 11:47:29;;;;;;;0.80;0.70;;;;;;;;;;5061357;28;20469;-55
2022/05/25 11:50:01;;;;;;;2.80;1.30;;;;;;;;;;5053986;28;20400;-59
2022/05/25 11:52:39;;;;;;;2.93;1.33;;;;;;;;;;5069599;28;20510;-59
2022/05/25 11:55:08;;;;;;;1.93;1.03;;;;;;;;;;5059054;28;20547;-59
2022/05/25 11:57:53;;;;;;;2.70;1.03;;;;;;;;;;5062740;28;20411;-57
2022/05/25 12:00:26;;;;;;;1.73;1.63;;;;;;;;;;5072906;28;20415;-56
2022/05/25 12:02:58;;;;;;;2.20;1.00;;;;;;;;;;5071542;28;20416;-57
2022/05/25 12:05:43;;;;;;;1.00;0.90;;;;;;;;;;5067076;28;20444;-57
2022/05/25 12:08:08;;;;;;;2.67;1.00;;;;;;;;;;5073132;28;20469;-55
2022/05/25 12:10:38;;;;;;;1.47;0.90;;;;;;;;;;5065302;28;20492;-56
2022/05/25 12:13:33;;;;;;;1.77;0.80;;;;;;;;;;5055951;28;20428;-53
2022/05/25 12:16:05;;;;;;;2.17;0.83;;;;;;;;;;5081419;28;20519;-55
2022/05/25 12:18:31;;;;;;;1.30;1.00;;;;;;;;;;5056104;28;20410;-56
2022/05/25 12:21:00;;;;;;;2.80;1.00;;;;;;;;;;5069567;28;20485;-56
2022/05/25 12:23:32;;;;;;;3.63;0.90;;;;;;;;;;5059661;28;20429;-56
2022/05/25 12:26:01;;;;;;;1.60;0.87;;;;;;;;;;5053515;28;20460;-55
2022/05/25 12:28:30;;;;;;;7.50;1.00;;;;;;;;;;5062619;28;20907;-56
2022/05/25 12:31:00;;;;;;;2.10;0.90;;;;;;;;;;5061450;28;20833;-57
2022/05/25 12:33:27;;;;;;;1.53;0.80;;;;;;;;;;5053538;28;20421;-57
2022/05/25 12:35:53;;;;;;;1.30;0.87;;;;;;;;;;5070439;28;20590;-57
2022/05/25 12:38:20;;;;;;;0.80;0.60;;;;;;;;;;5060657;28;20424;-57
2022/05/25 12:40:47;;;;;;;3.43;0.90;;;;;;;;;;5060582;28;20421;-57
2022/05/25 12:43:32;;;;;;;1.10;0.80;;;;;;;;;;5054559;28;20877;-56
2022/05/25 12:48:56;;;;;;;1.30;0.93;;;;;;;;;;5015134;28;20426;-55
2022/05/25 12:51:28;;;;;;;1.63;0.90;;;;;;;;;;5069924;28;20419;-54
2022/05/25 12:53:54;;;;;;;0.80;0.70;;;;;;;;;;5064541;28;20643;-55
2022/05/25 12:56:21;;;;;;;1.93;1.10;;;;;;;;;;5051761;28;21056;-56
2022/05/25 12:58:53;;;;;;;1.47;1.00;;;;;;;;;;5054111;28;20175;-56
2022/05/25 13:01:28;;;;;;;2.40;0.70;;;;;;;;;;5051943;28;20401;-55
2022/05/25 13:03:57;;;;;;;5.13;3.33;;;;;;;;;;5068094;28;20416;-54
2022/05/25 13:06:43;;;;;;;2.80;1.37;;;;;;;;;;5067927;28;20458;-55
2022/05/25 13:09:11;;;;;;;1.20;0.90;;;;;;;;;;5052693;28;20418;-56
2022/05/25 13:11:53;;;;;;;0.97;0.83;;;;;;;;;;5055741;28;20413;-54
2022/05/25 13:14:24;;;;;;;3.93;0.97;;;;;;;;;;5068500;28;20421;-54
2022/05/25 13:16:52;;;;;;;1.20;0.80;;;;;;;;;;5064315;28;20916;-55
2022/05/25 13:19:19;;;;;;;1.23;1.00;;;;;;;;;;5052776;28;20414;-56
2022/05/25 13:22:10;;;;;;;2.03;0.70;;;;;;;;;;5067797;28;20424;-56
2022/05/25 13:24:42;;;;;;;2.53;0.73;;;;;;;;;;5065065;28;20432;-54
2022/05/25 13:27:19;;;;;;;1.03;0.90;;;;;;;;;;5052425;28;20479;-55
2022/05/25 13:30:03;;;;;;;0.80;0.80;;;;;;;;;;5070682;28;20478;-56
2022/05/25 13:32:48;;;;;;;1.27;0.80;;;;;;;;;;5070722;28;20399;-55
2022/05/25 13:35:20;;;;;;;3.67;0.90;;;;;;;;;;5050684;28;20488;-54
2022/05/25 13:37:54;;;;;;;1.30;0.90;;;;;;;;;;5052876;28;20412;-55
2022/05/25 13:40:22;;;;;;;1.43;0.80;;;;;;;;;;5054550;28;20413;-55
2022/05/25 13:42:49;;;;;;;1.27;0.90;;;;;;;;;;5070820;28;20409;-56
2022/05/25 13:45:19;;;;;;;1.43;0.87;;;;;;;;;;5070020;28;20924;-56
2022/05/25 13:47:55;;;;;;;0.97;0.87;;;;;;;;;;5053593;28;21044;-56
2022/05/25 13:50:32;;;;;;;1.40;1.00;;;;;;;;;;5055966;28;20427;-55
2022/05/25 13:52:58;;;;;;;7.50;1.20;;;;;;;;;;5064816;28;20500;-55
2022/05/25 13:55:28;;;;;;;3.50;0.90;;;;;;;;;;5062410;28;20468;-55
2022/05/25 13:57:59;;;;;;;1.73;1.20;;;;;;;;;;5065178;28;20556;-55
2022/05/25 14:00:28;;;;;;;1.20;1.00;;;;;;;;;;5061082;28;20467;-56
2022/05/25 14:02:57;;;;;;;1.87;0.90;;;;;;;;;;5060587;28;20422;-55
2022/05/25 14:05:26;;;;;;;3.53;1.73;;;;;;;;;;5065227;28;20517;-56
2022/05/25 14:07:52;;;;;;;1.40;1.20;;;;;;;;;;5058855;28;20590;-54
2022/05/25 14:13:20;;;;;;;2.40;1.20;;;;;;;;;;5068540;28;20468;-55
2022/05/25 14:15:53;;;;;;;1.57;1.00;;;;;;;;;;5070985;28;20422;-54
2022/05/25 14:18:19;;;;;;;1.23;0.93;;;;;;;;;;5053570;28;20432;-55
2022/05/25 14:20:45;;;;;;;1.10;0.80;;;;;;;;;;5054535;28;20779;-56
2022/05/25 14:23:11;;;;;;;1.00;0.90;;;;;;;;;;5071974;28;20395;-55
2022/05/25 14:25:38;;;;;;;1.77;1.10;;;;;;;;;;5072028;28;20428;-55
2022/05/25 14:28:04;;;;;;;4.20;1.40;;;;;;;;;;5069462;28;20537;-55
2022/05/25 14:30:33;;;;;;;2.67;1.00;;;;;;;;;;5064843;28;20926;-56
2022/05/25 14:33:04;;;;;;;4.10;1.20;;;;;;;;;;5070038;28;20495;-54
2022/05/25 14:35:32;;;;;;;4.80;1.00;;;;;;;;;;5071211;28;20444;-53
2022/05/25 14:38:00;;;;;;;1.87;0.97;;;;;;;;;;5052995;28;20459;-53
2022/05/25 14:40:29;;;;;;;1.57;1.17;;;;;;;;;;5073623;28;20494;-53
2022/05/25 14:42:59;;;;;;;1.47;0.90;;;;;;;;;;5072266;28;20474;-52
2022/05/25 14:45:26;;;;;;;2.70;0.93;;;;;;;;;;5054580;28;20490;-54
2022/05/25 14:47:55;;;;;;;1.27;1.17;;;;;;;;;;5051474;28;20502;-54
2022/05/25 14:50:24;;;;;;;1.20;1.10;;;;;;;;;;5063296;28;20863;-56
2022/05/25 14:52:59;;;;;;;0.90;0.90;;;;;;;;;;5070416;28;20840;-57
2022/05/25 14:55:39;;;;;;;2.93;0.97;;;;;;;;;;5069737;28;20436;-56
2022/05/25 14:58:08;;;;;;;1.10;1.00;;;;;;;;;;5071324;28;20424;-53
2022/05/25 15:00:48;;;;;;;1.20;1.10;;;;;;;;;;5068444;28;20470;-53
2022/05/25 15:03:27;;;;;;;1.97;1.03;;;;;;;;;;5070631;28;20843;-53
2022/05/25 15:05:58;;;;;;;2.07;1.10;;;;;;;;;;5051338;28;20441;-55
2022/05/25 15:08:27;;;;;;;10.63;1.30;;;;;;;;;;5063900;28;20419;-56
2022/05/25 15:10:54;;;;;;;1.80;1.10;;;;;;;;;;5054045;28;20401;-57
2022/05/25 15:18:29;;;;;;;1.40;0.97;;;;;;;;;;5049109;28;20401;-57
2022/05/25 15:19:03;;;;;;;6.63;1.30;;;;;;;;;;5053938;28;21039;-57
2022/05/25 15:21:34;;;;;;;1.80;1.10;;;;;;;;;;5067463;28;20780;-56
2022/05/25 15:24:02;;;;;;;3.73;1.50;;;;;;;;;;5059690;28;20413;-57
2022/05/25 15:26:31;;;;;;;3.33;1.10;;;;;;;;;;5072654;28;20451;-57
2022/05/25 15:29:16;;;;;;;2.13;0.97;;;;;;;;;;5059654;28;20467;-57
2022/05/25 15:31:42;;;;;;;2.00;1.00;;;;;;;;;;5054216;28;20404;-57